KCHO

Charlottesville-Albemarle Airport

Charlottesville, Virginia, USA
METAR KCHO 141253Z 21004KT 10SM CLR 22/17 A3000 RMK AO2 SLP154 T02220172
Observed Flight Rules
Aug-14 @ 12:53 UTC (50 minutes ago) Visual Flight Rules
Wind Visibility Clouds
210° at 4 knots 10 miles
  • Clear skies
Temperatures Readings
Current 22°C / 72°F
Dewpoint 17°C / 63°F
Humidity 73%
Altimeter 30" Hg
Pressure 1015.4 hPa
Elevation 192
METAR KCHO 141253Z 21004KT 10SM CLR 22/17 A3000 RMK AO2 SLP154 T02220172
Observed Flight Rules
Aug-14 @ 12:53 UTC
(50 minutes ago)
VFR
Wind Visibility
210° at 4 knots 10 miles
Clouds
  • Clear skies
Temperature Dewpoint
22°C / 72°F 17°C / 63°F
Humidity Altimeter Pressure
73% 30" Hg 1015.4 hPa